Time;durP1;ratioP1;P1;durP2;ratioP2;P2;SDS_P1;SDS_P2;PMS_P1;PMS_P2;Temp;Humidity;BMP_temperature;BMP_pressure;BME280_temperature;BME280_humidity;BME280_pressure;Samples;Min_cycle;Max_cycle;Signal;HPM_P1;HPM_P2
2023/08/09 00:01:13;;;;;;;;;;;15.90;99.90;;;;;;5026602;28;20213;-71
2023/08/09 00:03:39;;;;;;;;;;;15.90;99.90;;;;;;5026265;28;19921;-72
2023/08/09 00:06:06;;;;;;;;;;;15.90;99.90;;;;;;5017946;28;19925;-71
2023/08/09 00:08:33;;;;;;;;;;;15.90;99.90;;;;;;5026254;28;19921;-71
2023/08/09 00:11:01;;;;;;;;;;;15.80;99.90;;;;;;5026388;28;19928;-71
2023/08/09 00:13:27;;;;;;;;;;;15.80;99.90;;;;;;5025924;28;20205;-71
2023/08/09 00:15:54;;;;;;;;;;;15.80;99.90;;;;;;5025772;28;19922;-71
2023/08/09 00:18:20;;;;;;;;;;;15.80;99.90;;;;;;5025487;28;19921;-71
2023/08/09 00:20:47;;;;;;;;;;;15.80;99.90;;;;;;5025785;28;19992;-71
2023/08/09 00:23:16;;;;;;;;;;;15.70;99.90;;;;;;5025289;28;19921;-70
2023/08/09 00:25:43;;;;;;;;;;;15.70;99.90;;;;;;5025865;28;19959;-70
2023/08/09 00:28:11;;;;;;;;;;;15.70;99.90;;;;;;5025378;28;19993;-71
2023/08/09 00:30:37;;;;;;;;;;;15.70;99.90;;;;;;5025760;28;19992;-71
2023/08/09 00:33:04;;;;;;;;;;;15.70;99.90;;;;;;5025934;28;19992;-72
2023/08/09 00:35:32;;;;;;;;;;;15.70;99.90;;;;;;5025161;28;19988;-70
2023/08/09 00:38:00;;;;;;;;;;;15.60;99.90;;;;;;5025283;28;19984;-70
2023/08/09 00:40:26;;;;;;;;;;;15.60;99.90;;;;;;5025834;28;19953;-71
2023/08/09 00:42:53;;;;;;;;;;;15.50;99.90;;;;;;5025645;28;19988;-71
2023/08/09 00:45:21;;;;;;;;;;;15.50;99.90;;;;;;5025344;28;19952;-71
2023/08/09 00:47:51;;;;;;;;;;;15.50;99.90;;;;;;5023954;28;19981;-70
2023/08/09 00:50:17;;;;;;;;;;;15.50;99.90;;;;;;5025484;28;20108;-71
2023/08/09 00:52:44;;;;;;;;;;;15.40;99.90;;;;;;5024979;28;19928;-71
2023/08/09 00:55:11;;;;;;;;;;;15.40;99.90;;;;;;5025283;28;20268;-71
2023/08/09 00:57:38;;;;;;;;;;;15.40;99.90;;;;;;5024926;28;19956;-71
2023/08/09 01:00:05;;;;;;;;;;;15.30;99.90;;;;;;5025579;28;19989;-72
2023/08/09 01:02:33;;;;;;;;;;;15.30;99.90;;;;;;5025110;28;20216;-71
2023/08/09 01:05:04;;;;;;;;;;;15.30;99.90;;;;;;5025360;28;19996;-71
2023/08/09 01:07:33;;;;;;;;;;;15.20;99.90;;;;;;5021107;28;19984;-71
2023/08/09 01:10:03;;;;;;;;;;;15.20;99.90;;;;;;5009048;28;20160;-71
2023/08/09 01:12:30;;;;;;;;;;;15.10;99.90;;;;;;5025180;28;19996;-71
2023/08/09 01:14:58;;;;;;;;;;;15.10;99.90;;;;;;5024777;28;19922;-71
2023/08/09 01:17:26;;;;;;;;;;;15.10;99.90;;;;;;5024511;28;19921;-71
2023/08/09 01:19:55;;;;;;;;;;;15.10;99.90;;;;;;5025127;28;19996;-71
2023/08/09 01:22:23;;;;;;;;;;;15.10;99.90;;;;;;5025083;28;19992;-71
2023/08/09 01:24:51;;;;;;;;;;;15.10;99.90;;;;;;5025136;28;20152;-71
2023/08/09 01:27:18;;;;;;;;;;;15.10;99.90;;;;;;5024464;28;19967;-71
2023/08/09 01:29:45;;;;;;;;;;;15.10;99.90;;;;;;5024464;28;19989;-71
2023/08/09 01:32:12;;;;;;;;;;;15.10;99.90;;;;;;5024682;28;20163;-70
2023/08/09 01:34:39;;;;;;;;;;;15.10;99.90;;;;;;5024605;28;20218;-71
2023/08/09 01:37:10;;;;;;;;;;;15.10;99.90;;;;;;5024208;28;19960;-71
2023/08/09 01:39:38;;;;;;;;;;;15.10;99.90;;;;;;5024841;28;19921;-71
2023/08/09 01:42:06;;;;;;;;;;;15.10;99.90;;;;;;5024224;28;19989;-70
2023/08/09 01:44:35;;;;;;;;;;;15.10;99.90;;;;;;5024729;28;19984;-70
2023/08/09 01:47:03;;;;;;;;;;;15.10;99.90;;;;;;5023965;28;19984;-71
2023/08/09 01:49:30;;;;;;;;;;;15.10;99.90;;;;;;5024710;28;19921;-71
2023/08/09 01:51:56;;;;;;;;;;;15.00;99.90;;;;;;5024346;28;19985;-70
2023/08/09 01:54:24;;;;;;;;;;;15.00;99.90;;;;;;5024491;28;19922;-71
2023/08/09 01:56:50;;;;;;;;;;;15.00;99.90;;;;;;5023827;28;20086;-71
2023/08/09 01:59:18;;;;;;;;;;;14.90;99.90;;;;;;5024341;28;20152;-71
2023/08/09 02:01:45;;;;;;;;;;;14.90;99.90;;;;;;5024196;28;20136;-71
2023/08/09 02:04:11;;;;;;;;;;;14.80;99.90;;;;;;5024438;28;19932;-71
2023/08/09 02:06:39;;;;;;;;;;;14.80;99.90;;;;;;5023327;28;19922;-71
2023/08/09 02:09:07;;;;;;;;;;;14.80;99.90;;;;;;5023968;28;19931;-71
2023/08/09 02:11:33;;;;;;;;;;;14.80;99.90;;;;;;5024330;28;19922;-71
2023/08/09 02:14:00;;;;;;;;;;;14.80;99.90;;;;;;5024115;28;20255;-70
2023/08/09 02:16:28;;;;;;;;;;;14.80;99.90;;;;;;5023244;28;19964;-71
2023/08/09 02:18:55;;;;;;;;;;;14.70;99.90;;;;;;5024009;28;19964;-70
2023/08/09 02:21:22;;;;;;;;;;;14.70;99.90;;;;;;5023834;28;20223;-71
2023/08/09 02:23:49;;;;;;;;;;;14.70;99.90;;;;;;5024213;28;19926;-71
2023/08/09 02:26:17;;;;;;;;;;;14.60;99.90;;;;;;5023120;28;19964;-71
2023/08/09 02:28:43;;;;;;;;;;;14.60;99.90;;;;;;5023910;28;19960;-71
2023/08/09 02:31:10;;;;;;;;;;;14.60;99.90;;;;;;5024065;28;19921;-71
2023/08/09 02:33:38;;;;;;;;;;;14.60;99.90;;;;;;5023958;28;19972;-71
2023/08/09 02:36:05;;;;;;;;;;;14.50;99.90;;;;;;5023436;28;19988;-71
2023/08/09 02:38:33;;;;;;;;;;;14.50;99.90;;;;;;5023726;28;19984;-71
2023/08/09 02:41:00;;;;;;;;;;;14.50;99.90;;;;;;5024222;28;19960;-71
2023/08/09 02:43:26;;;;;;;;;;;14.40;99.90;;;;;;5026861;28;19922;-71
2023/08/09 02:45:53;;;;;;;;;;;14.40;99.90;;;;;;5027767;28;19928;-71
2023/08/09 02:48:20;;;;;;;;;;;14.40;99.90;;;;;;5027718;28;19980;-71
2023/08/09 02:50:48;;;;;;;;;;;14.40;99.90;;;;;;5027796;28;20260;-71
2023/08/09 02:53:15;;;;;;;;;;;14.40;99.90;;;;;;5027326;28;19964;-71
2023/08/09 02:55:42;;;;;;;;;;;14.40;99.90;;;;;;5027604;28;19988;-71
2023/08/09 02:58:08;;;;;;;;;;;14.40;99.90;;;;;;5027113;28;19928;-71
2023/08/09 03:00:35;;;;;;;;;;;14.40;99.90;;;;;;5027914;28;19922;-71
2023/08/09 03:03:04;;;;;;;;;;;14.40;99.90;;;;;;5027741;28;19925;-71
2023/08/09 03:05:31;;;;;;;;;;;14.30;99.90;;;;;;5007701;28;19929;-71
2023/08/09 03:07:59;;;;;;;;;;;14.30;99.90;;;;;;5007213;28;20260;-71
2023/08/09 03:10:26;;;;;;;;;;;14.30;99.90;;;;;;5007994;28;19957;-71
2023/08/09 03:12:53;;;;;;;;;;;14.30;99.90;;;;;;5007824;28;19922;-70
2023/08/09 03:15:19;;;;;;;;;;;14.30;99.90;;;;;;5007520;28;20273;-71
2023/08/09 03:17:46;;;;;;;;;;;14.30;99.90;;;;;;5007268;28;19928;-71
2023/08/09 03:20:14;;;;;;;;;;;14.30;99.90;;;;;;5007476;28;19985;-71
2023/08/09 03:22:40;;;;;;;;;;;14.30;99.90;;;;;;5007426;28;20214;-71
2023/08/09 03:25:09;;;;;;;;;;;14.30;99.90;;;;;;5012038;28;20001;-71
2023/08/09 03:27:35;;;;;;;;;;;14.20;99.90;;;;;;5006656;28;19981;-70
2023/08/09 03:30:03;;;;;;;;;;;14.20;99.90;;;;;;5026755;28;19921;-71
2023/08/09 03:32:30;;;;;;;;;;;14.20;99.90;;;;;;5027145;28;19921;-71
2023/08/09 03:34:57;;;;;;;;;;;14.20;99.90;;;;;;5011951;28;19993;-71
2023/08/09 03:37:23;;;;;;;;;;;14.10;99.90;;;;;;5006732;28;19985;-71
2023/08/09 03:39:50;;;;;;;;;;;14.20;99.90;;;;;;5007572;28;19926;-71
2023/08/09 03:42:18;;;;;;;;;;;14.20;99.90;;;;;;5007451;28;19922;-71
2023/08/09 03:44:45;;;;;;;;;;;14.20;99.90;;;;;;5006914;28;19985;-71
2023/08/09 03:47:11;;;;;;;;;;;14.20;99.90;;;;;;5006666;28;19921;-71
2023/08/09 03:49:38;;;;;;;;;;;14.10;99.90;;;;;;5007225;28;19964;-71
2023/08/09 03:52:06;;;;;;;;;;;14.20;99.90;;;;;;5006887;28;19928;-71
2023/08/09 03:54:33;;;;;;;;;;;14.20;99.90;;;;;;5006918;28;19944;-71
2023/08/09 03:56:59;;;;;;;;;;;14.20;99.90;;;;;;5006300;28;19922;-72
2023/08/09 03:59:27;;;;;;;;;;;14.10;99.90;;;;;;5006880;28;20113;-71
2023/08/09 04:01:54;;;;;;;;;;;14.20;99.90;;;;;;5008584;28;19984;-71
2023/08/09 04:04:20;;;;;;;;;;;14.10;99.90;;;;;;5007089;28;19980;-72
2023/08/09 04:06:47;;;;;;;;;;;14.10;99.90;;;;;;5005841;28;19921;-70
2023/08/09 04:09:14;;;;;;;;;;;14.10;99.90;;;;;;5006885;28;19989;-71
2023/08/09 04:11:40;;;;;;;;;;;14.10;99.90;;;;;;5006539;28;19922;-72
2023/08/09 04:14:08;;;;;;;;;;;14.10;99.90;;;;;;5023142;28;19928;-71
2023/08/09 04:16:36;;;;;;;;;;;14.10;99.90;;;;;;5025569;28;19921;-71
2023/08/09 04:19:02;;;;;;;;;;;14.00;99.90;;;;;;5026394;28;19990;-71
2023/08/09 04:21:29;;;;;;;;;;;14.00;99.90;;;;;;5026012;28;20117;-71
2023/08/09 04:23:55;;;;;;;;;;;14.10;99.90;;;;;;5025363;28;19925;-71
2023/08/09 04:26:22;;;;;;;;;;;14.10;99.90;;;;;;5005639;28;20257;-71
2023/08/09 04:28:49;;;;;;;;;;;14.10;99.90;;;;;;5006585;28;19928;-71
2023/08/09 04:31:16;;;;;;;;;;;14.10;99.90;;;;;;5006354;28;19956;-71
2023/08/09 04:33:49;;;;;;;;;;;14.10;99.90;;;;;;5006387;28;19926;-71
2023/08/09 04:36:16;;;;;;;;;;;14.10;99.90;;;;;;5005652;28;19929;-72
2023/08/09 04:38:43;;;;;;;;;;;14.10;99.90;;;;;;5006403;28;19921;-71
2023/08/09 04:41:10;;;;;;;;;;;14.10;99.90;;;;;;5006390;28;19925;-71
2023/08/09 04:43:38;;;;;;;;;;;14.20;99.90;;;;;;5006067;28;19921;-71
2023/08/09 04:46:04;;;;;;;;;;;14.20;99.90;;;;;;5009165;28;19964;-71
2023/08/09 04:48:31;;;;;;;;;;;14.20;99.90;;;;;;5013312;28;19980;-71
2023/08/09 04:50:59;;;;;;;;;;;14.20;99.90;;;;;;5006185;28;19964;-71
2023/08/09 04:53:25;;;;;;;;;;;14.20;99.90;;;;;;5005630;28;19993;-71
2023/08/09 04:55:52;;;;;;;;;;;14.20;99.90;;;;;;5005337;28;20329;-71
2023/08/09 04:58:19;;;;;;;;;;;14.20;99.90;;;;;;5005573;28;19984;-71
2023/08/09 05:00:45;;;;;;;;;;;14.30;99.90;;;;;;5021985;28;19922;-71
2023/08/09 05:03:12;;;;;;;;;;;14.30;99.90;;;;;;5025109;28;19963;-71
2023/08/09 05:05:39;;;;;;;;;;;14.30;99.90;;;;;;5024315;28;19921;-71
2023/08/09 05:08:07;;;;;;;;;;;14.30;99.90;;;;;;5024940;28;19927;-71
2023/08/09 05:10:35;;;;;;;;;;;14.30;99.90;;;;;;5024949;28;20264;-71
2023/08/09 05:13:01;;;;;;;;;;;14.30;99.90;;;;;;5024880;28;20251;-71
2023/08/09 05:15:28;;;;;;;;;;;14.40;99.90;;;;;;5024953;28;19985;-71
2023/08/09 05:17:55;;;;;;;;;;;14.40;99.90;;;;;;5024215;28;20209;-71
2023/08/09 05:20:21;;;;;;;;;;;14.30;99.90;;;;;;5025168;28;19989;-71
2023/08/09 05:22:48;;;;;;;;;;;14.40;99.90;;;;;;5024605;28;19921;-71
2023/08/09 05:25:16;;;;;;;;;;;14.40;99.90;;;;;;5024904;28;20162;-71
2023/08/09 05:27:46;;;;;;;;;;;14.40;99.90;;;;;;5024472;28;19985;-73
2023/08/09 05:30:13;;;;;;;;;;;14.40;99.90;;;;;;5025010;28;19921;-71
2023/08/09 05:32:40;;;;;;;;;;;14.40;99.90;;;;;;5023729;28;19984;-71
2023/08/09 05:35:07;;;;;;;;;;;14.50;99.90;;;;;;5005196;28;19932;-71
2023/08/09 05:37:33;;;;;;;;;;;14.50;99.90;;;;;;5004803;28;19980;-71
2023/08/09 05:40:00;;;;;;;;;;;14.50;99.90;;;;;;5005316;28;19928;-71
2023/08/09 05:42:28;;;;;;;;;;;14.50;99.90;;;;;;5005077;28;19984;-71
2023/08/09 05:45:13;;;;;;;;;;;14.50;99.90;;;;;;5043011;23;19976;-92
2023/08/09 05:50:55;;;;;;;;;;;12.90;99.90;;;;;;5038085;28;19974;-92
2023/08/09 05:53:45;;;;;;;;;;;14.60;99.90;;;;;;5040019;28;19910;-93
2023/08/09 05:56:12;;;;;;;;;;;14.60;99.90;;;;;;5038689;28;19921;-93
2023/08/09 05:58:41;;;;;;;;;;;14.50;99.90;;;;;;5039099;22;19921;-75
2023/08/09 06:01:08;;;;;;;;;;;14.50;99.90;;;;;;5024452;28;19945;-75
2023/08/09 06:03:37;;;;;;;;;;;14.50;99.90;;;;;;5024612;28;19993;-75
2023/08/09 06:06:04;;;;;;;;;;;14.60;99.90;;;;;;5023465;28;19925;-75
2023/08/09 06:08:31;;;;;;;;;;;14.60;99.90;;;;;;5022323;28;19922;-76
2023/08/09 06:10:57;;;;;;;;;;;14.60;99.90;;;;;;5024525;28;19988;-75
2023/08/09 06:13:24;;;;;;;;;;;14.70;99.90;;;;;;5024526;28;19922;-75
2023/08/09 06:15:52;;;;;;;;;;;14.60;99.90;;;;;;5023740;28;19952;-76
2023/08/09 06:18:19;;;;;;;;;;;14.60;99.90;;;;;;5023243;28;20152;-76
2023/08/09 06:20:45;;;;;;;;;;;14.70;99.90;;;;;;5023974;28;19921;-75
2023/08/09 06:23:12;;;;;;;;;;;14.70;99.90;;;;;;5024321;28;20001;-75
2023/08/09 06:25:39;;;;;;;;;;;14.70;99.90;;;;;;5023717;28;19953;-75
2023/08/09 06:28:06;;;;;;;;;;;14.70;99.90;;;;;;5023618;28;19929;-76
2023/08/09 06:30:38;;;;;;;;;;;14.70;99.90;;;;;;5024248;28;19929;-76
2023/08/09 06:33:07;;;;;;;;;;;14.70;99.90;;;;;;5024008;28;19964;-75
2023/08/09 06:35:34;;;;;;;;;;;14.70;99.90;;;;;;5022062;28;20205;-76
2023/08/09 06:38:26;;;;;;;;;;;14.70;99.90;;;;;;5021859;28;19922;-75
2023/08/09 06:41:06;;;;;;;;;;;14.70;99.90;;;;;;5024204;28;19992;-75
2023/08/09 06:43:33;;;;;;;;;;;14.80;99.90;;;;;;5015330;28;19922;-75
2023/08/09 06:49:04;;;;;;;;;;;14.80;99.90;;;;;;5004401;28;19952;-76
2023/08/09 06:51:51;;;;;;;;;;;14.80;99.90;;;;;;5003664;28;20224;-75
2023/08/09 06:54:18;;;;;;;;;;;14.80;99.90;;;;;;5004040;28;19957;-75
2023/08/09 06:56:44;;;;;;;;;;;14.80;99.90;;;;;;5003559;28;19957;-75
2023/08/09 06:59:11;;;;;;;;;;;14.80;99.90;;;;;;5004129;28;19975;-75
2023/08/09 07:04:42;;;;;;;;;;;14.80;99.90;;;;;;5003940;28;19992;-75
2023/08/09 07:07:09;;;;;;;;;;;14.80;99.90;;;;;;5003397;28;19988;-75
2023/08/09 07:09:38;;;;;;;;;;;14.80;99.90;;;;;;5005280;28;19926;-75
2023/08/09 07:12:05;;;;;;;;;;;14.80;99.90;;;;;;5022986;28;19932;-75
2023/08/09 07:14:33;;;;;;;;;;;14.80;99.90;;;;;;5019256;28;19960;-75
2023/08/09 07:17:00;;;;;;;;;;;14.80;99.90;;;;;;5023003;28;20108;-75
2023/08/09 07:19:27;;;;;;;;;;;14.80;99.90;;;;;;5023720;28;19972;-75
2023/08/09 07:21:55;;;;;;;;;;;14.80;99.90;;;;;;5015806;28;19928;-75
2023/08/09 07:24:23;;;;;;;;;;;14.80;99.90;;;;;;5004110;28;19944;-75
2023/08/09 07:26:50;;;;;;;;;;;14.90;99.90;;;;;;5003513;28;19949;-75
2023/08/09 07:29:16;;;;;;;;;;;14.90;99.90;;;;;;5006197;28;20300;-75
2023/08/09 07:31:43;;;;;;;;;;;14.90;99.90;;;;;;5007579;28;19993;-76
2023/08/09 07:34:10;;;;;;;;;;;14.90;99.90;;;;;;5007452;28;19989;-75
2023/08/09 07:36:36;;;;;;;;;;;15.00;99.90;;;;;;5006670;28;19953;-75
2023/08/09 07:39:04;;;;;;;;;;;15.00;99.90;;;;;;5007677;28;19988;-75
2023/08/09 07:41:31;;;;;;;;;;;15.00;99.90;;;;;;5007493;28;19949;-75
2023/08/09 07:43:58;;;;;;;;;;;15.00;99.90;;;;;;5008796;28;20098;-74
2023/08/09 07:46:45;;;;;;;;;;;15.10;99.90;;;;;;5006166;28;19982;-74
2023/08/09 07:49:11;;;;;;;;;;;15.10;99.90;;;;;;5019033;28;19922;-75
2023/08/09 07:51:38;;;;;;;;;;;15.20;99.90;;;;;;5010080;28;19921;-74
2023/08/09 07:54:06;;;;;;;;;;;15.20;99.90;;;;;;5026562;28;19921;-74
2023/08/09 07:56:34;;;;;;;;;;;15.20;99.90;;;;;;5025920;28;19985;-74
2023/08/09 07:59:00;;;;;;;;;;;15.30;99.90;;;;;;5024705;28;20014;-74
2023/08/09 08:01:27;;;;;;;;;;;15.40;99.90;;;;;;5015515;28;19964;-74
2023/08/09 08:03:54;;;;;;;;;;;15.50;99.90;;;;;;5007077;28;19921;-74
2023/08/09 08:06:20;;;;;;;;;;;15.60;99.90;;;;;;5020657;28;19944;-74
2023/08/09 08:14:33;;;;;;;;;;;15.60;99.90;;;;;;5006828;28;20009;-74
2023/08/09 08:17:00;;;;;;;;;;;15.70;99.90;;;;;;4988809;28;20252;-75
2023/08/09 08:19:27;;;;;;;;;;;15.60;99.90;;;;;;5006941;28;19928;-74
2023/08/09 08:21:53;;;;;;;;;;;15.60;99.90;;;;;;5006531;28;19921;-74
2023/08/09 08:24:20;;;;;;;;;;;15.60;99.90;;;;;;5006626;28;19928;-74
2023/08/09 08:27:16;;;;;;;;;;;15.70;99.90;;;;;;5003253;28;19922;-75
2023/08/09 08:29:45;;;;;;;;;;;15.70;99.90;;;;;;5008778;28;19968;-74
2023/08/09 08:32:11;;;;;;;;;;;15.60;99.90;;;;;;5006451;28;19960;-74
2023/08/09 08:34:38;;;;;;;;;;;15.50;99.90;;;;;;5006516;28;20121;-74
2023/08/09 08:37:06;;;;;;;;;;;15.50;99.90;;;;;;5006064;28;20176;-74
2023/08/09 08:39:36;;;;;;;;;;;15.60;99.90;;;;;;5004997;28;20290;-74
2023/08/09 08:42:02;;;;;;;;;;;15.60;99.90;;;;;;5006087;28;19922;-74
2023/08/09 08:44:29;;;;;;;;;;;15.70;99.90;;;;;;5006381;28;19926;-74
2023/08/09 08:47:04;;;;;;;;;;;15.70;99.90;;;;;;5002891;28;20261;-75
2023/08/09 08:49:33;;;;;;;;;;;15.80;99.90;;;;;;5006337;28;19986;-74
2023/08/09 08:52:00;;;;;;;;;;;16.00;99.90;;;;;;5005996;28;20233;-75
2023/08/09 08:54:26;;;;;;;;;;;16.10;99.90;;;;;;5005856;28;19922;-75
2023/08/09 08:56:53;;;;;;;;;;;16.10;99.90;;;;;;5005605;28;20464;-74
2023/08/09 08:59:21;;;;;;;;;;;16.20;99.90;;;;;;5006915;28;19922;-74
2023/08/09 09:01:48;;;;;;;;;;;16.30;99.90;;;;;;5017437;28;19925;-74
2023/08/09 09:04:16;;;;;;;;;;;16.50;99.90;;;;;;5025469;28;19922;-74
2023/08/09 09:06:43;;;;;;;;;;;16.50;99.90;;;;;;5007321;28;20228;-75
2023/08/09 09:09:11;;;;;;;;;;;16.60;99.90;;;;;;5025296;28;19922;-74
2023/08/09 09:11:37;;;;;;;;;;;16.70;99.90;;;;;;5025446;28;19928;-74
2023/08/09 09:14:10;;;;;;;;;;;16.80;99.90;;;;;;5025333;28;19981;-75
2023/08/09 09:16:37;;;;;;;;;;;16.90;99.90;;;;;;5024289;28;19984;-75
2023/08/09 09:19:04;;;;;;;;;;;17.00;99.90;;;;;;5025144;28;19921;-75
2023/08/09 09:21:32;;;;;;;;;;;17.00;99.90;;;;;;5025132;28;20277;-74
2023/08/09 09:24:02;;;;;;;;;;;17.00;99.90;;;;;;5025242;28;19968;-74
2023/08/09 09:26:29;;;;;;;;;;;17.00;99.90;;;;;;5024195;28;19957;-75
2023/08/09 09:28:55;;;;;;;;;;;17.00;99.90;;;;;;5007315;28;19930;-75
2023/08/09 09:31:22;;;;;;;;;;;17.00;99.90;;;;;;5005520;28;19922;-74
2023/08/09 09:33:50;;;;;;;;;;;17.00;99.90;;;;;;5005147;28;20263;-75
2023/08/09 09:36:17;;;;;;;;;;;16.90;99.90;;;;;;5004359;28;19922;-75
2023/08/09 09:38:47;;;;;;;;;;;17.00;99.90;;;;;;5005451;28;19922;-74
2023/08/09 09:41:33;;;;;;;;;;;16.90;99.90;;;;;;5002593;28;19989;-74
2023/08/09 09:44:03;;;;;;;;;;;16.80;99.90;;;;;;5004346;28;20243;-75
2023/08/09 09:46:49;;;;;;;;;;;16.90;99.90;;;;;;5001936;28;19989;-75
2023/08/09 09:49:16;;;;;;;;;;;16.90;99.90;;;;;;5004862;28;19941;-75
2023/08/09 09:51:43;;;;;;;;;;;16.90;99.90;;;;;;5002663;28;19929;-74
2023/08/09 09:54:11;;;;;;;;;;;16.90;99.90;;;;;;5005096;28;19926;-74
2023/08/09 09:56:40;;;;;;;;;;;17.00;99.90;;;;;;5001780;28;19973;-74
2023/08/09 09:59:07;;;;;;;;;;;17.10;99.90;;;;;;5004644;28;19922;-74
2023/08/09 10:01:36;;;;;;;;;;;17.10;99.90;;;;;;5004694;28;19945;-75
2023/08/09 10:04:06;;;;;;;;;;;17.20;99.90;;;;;;5004928;28;20160;-74
2023/08/09 10:06:35;;;;;;;;;;;17.30;99.90;;;;;;5003942;28;19921;-74
2023/08/09 10:09:04;;;;;;;;;;;17.20;99.90;;;;;;5004321;28;19990;-75
2023/08/09 10:11:33;;;;;;;;;;;17.20;99.90;;;;;;5004569;28;19929;-74
2023/08/09 10:14:02;;;;;;;;;;;17.00;99.90;;;;;;5004860;28;19980;-75
2023/08/09 10:16:30;;;;;;;;;;;17.00;99.90;;;;;;5003990;28;19922;-74
2023/08/09 10:18:58;;;;;;;;;;;17.00;99.90;;;;;;5004750;28;19997;-74
2023/08/09 10:21:25;;;;;;;;;;;16.90;99.90;;;;;;5004497;28;19957;-74
2023/08/09 10:24:06;;;;;;;;;;;16.90;99.90;;;;;;4998871;28;19989;-75
2023/08/09 10:26:36;;;;;;;;;;;16.90;99.90;;;;;;5003954;28;19985;-74
2023/08/09 10:29:05;;;;;;;;;;;16.90;99.90;;;;;;5003980;28;20189;-74
2023/08/09 10:31:51;;;;;;;;;;;16.90;99.90;;;;;;5004328;28;19922;-74
2023/08/09 10:34:18;;;;;;;;;;;17.00;99.90;;;;;;5004399;28;19922;-74
2023/08/09 10:36:48;;;;;;;;;;;17.00;99.90;;;;;;5012270;28;19964;-74
2023/08/09 10:39:16;;;;;;;;;;;17.00;99.90;;;;;;5023652;28;20264;-75
2023/08/09 10:41:55;;;;;;;;;;;17.00;99.90;;;;;;5023627;28;19922;-74
2023/08/09 10:44:32;;;;;;;;;;;17.00;99.90;;;;;;5012334;28;19929;-74
2023/08/09 10:47:01;;;;;;;;;;;17.00;99.90;;;;;;5003432;28;19993;-74
2023/08/09 10:49:33;;;;;;;;;;;17.00;99.90;;;;;;5007849;28;19988;-74
2023/08/09 10:52:11;;;;;;;;;;;17.10;99.90;;;;;;5023755;28;19957;-75
2023/08/09 10:54:38;;;;;;;;;;;17.10;99.90;;;;;;5023641;28;20166;-74
2023/08/09 10:57:09;;;;;;;;;;;17.10;99.90;;;;;;5022630;28;20008;-74
2023/08/09 10:59:37;;;;;;;;;;;17.20;99.90;;;;;;5023330;28;19944;-74
2023/08/09 11:02:06;;;;;;;;;;;17.20;99.90;;;;;;5023388;28;19944;-74
2023/08/09 11:04:33;;;;;;;;;;;17.30;99.90;;;;;;5018889;28;20467;-74
2023/08/09 11:07:00;;;;;;;;;;;17.40;99.90;;;;;;5006938;28;19988;-75
2023/08/09 11:09:27;;;;;;;;;;;17.40;99.90;;;;;;5015632;28;19957;-74
2023/08/09 11:11:54;;;;;;;;;;;17.60;99.90;;;;;;5007730;28;19965;-74
2023/08/09 11:14:23;;;;;;;;;;;17.80;99.90;;;;;;5007705;28;19949;-74
2023/08/09 11:16:50;;;;;;;;;;;17.90;99.90;;;;;;5006977;28;19922;-75
2023/08/09 11:19:17;;;;;;;;;;;18.00;99.90;;;;;;5009026;28;19949;-74
2023/08/09 11:21:45;;;;;;;;;;;18.10;99.90;;;;;;5019086;28;19921;-74
2023/08/09 11:24:20;;;;;;;;;;;18.10;99.90;;;;;;5012514;28;19921;-74
2023/08/09 11:26:48;;;;;;;;;;;18.20;99.90;;;;;;5013142;28;19956;-74
2023/08/09 11:29:15;;;;;;;;;;;18.20;99.90;;;;;;5027342;28;19959;-74
2023/08/09 11:31:44;;;;;;;;;;;18.30;99.90;;;;;;5027215;28;20184;-74
2023/08/09 11:34:11;;;;;;;;;;;18.30;99.90;;;;;;5027374;28;19976;-74
2023/08/09 11:36:40;;;;;;;;;;;18.40;99.90;;;;;;5026180;28;20000;-74
2023/08/09 11:39:08;;;;;;;;;;;18.30;99.90;;;;;;5027082;28;19925;-74
2023/08/09 11:41:40;;;;;;;;;;;18.30;99.90;;;;;;5026990;28;20209;-74
2023/08/09 11:44:07;;;;;;;;;;;18.20;99.90;;;;;;5010658;28;19990;-74
2023/08/09 11:46:34;;;;;;;;;;;18.30;99.90;;;;;;5006531;28;19953;-74
2023/08/09 11:49:04;;;;;;;;;;;18.30;99.90;;;;;;5007483;28;20136;-75
2023/08/09 11:51:31;;;;;;;;;;;18.50;99.90;;;;;;5026372;28;19922;-74
2023/08/09 11:53:58;;;;;;;;;;;18.40;99.90;;;;;;5026592;28;19953;-74
2023/08/09 11:56:24;;;;;;;;;;;18.40;99.90;;;;;;5026092;28;19921;-73
2023/08/09 11:58:52;;;;;;;;;;;18.20;99.90;;;;;;5026690;28;19953;-74
2023/08/09 12:01:20;;;;;;;;;;;18.10;99.90;;;;;;5026584;28;19936;-74
2023/08/09 12:03:47;;;;;;;;;;;18.00;99.90;;;;;;5026915;28;19988;-74
2023/08/09 12:06:15;;;;;;;;;;;17.80;99.90;;;;;;5026206;28;19988;-74
2023/08/09 12:08:42;;;;;;;;;;;17.70;99.90;;;;;;5026895;28;19953;-74
2023/08/09 12:11:08;;;;;;;;;;;17.50;99.90;;;;;;5026363;28;20153;-74
2023/08/09 12:13:35;;;;;;;;;;;17.00;99.90;;;;;;5026600;28;19921;-75
2023/08/09 12:16:06;;;;;;;;;;;16.80;99.90;;;;;;5025518;28;20027;-74
2023/08/09 12:18:34;;;;;;;;;;;16.70;99.90;;;;;;5026243;28;20117;-75
2023/08/09 12:21:02;;;;;;;;;;;16.50;99.90;;;;;;5025884;28;19921;-74
2023/08/09 12:23:30;;;;;;;;;;;16.50;99.90;;;;;;5026445;28;19922;-74
2023/08/09 12:25:56;;;;;;;;;;;16.40;99.90;;;;;;5025626;28;19921;-74
2023/08/09 12:28:23;;;;;;;;;;;16.40;99.90;;;;;;5026074;28;20264;-74
2023/08/09 12:30:50;;;;;;;;;;;16.40;99.90;;;;;;5026038;28;19921;-75
2023/08/09 12:33:17;;;;;;;;;;;16.40;99.90;;;;;;5025901;28;19988;-75
2023/08/09 12:35:44;;;;;;;;;;;16.40;99.90;;;;;;5025410;28;19992;-74
2023/08/09 12:38:21;;;;;;;;;;;16.50;99.90;;;;;;5022761;28;19928;-75
2023/08/09 12:40:50;;;;;;;;;;;16.60;99.90;;;;;;5026150;28;19989;-76
2023/08/09 12:43:16;;;;;;;;;;;16.70;99.90;;;;;;5025776;28;20209;-74
2023/08/09 12:45:43;;;;;;;;;;;16.70;99.90;;;;;;5025651;28;20153;-75
2023/08/09 12:48:10;;;;;;;;;;;16.70;99.90;;;;;;5025408;28;19921;-74
2023/08/09 12:50:36;;;;;;;;;;;16.70;99.90;;;;;;5025606;28;20304;-75
2023/08/09 12:53:03;;;;;;;;;;;16.70;99.90;;;;;;5025809;28;19927;-74
2023/08/09 12:55:29;;;;;;;;;;;16.70;99.90;;;;;;5025482;28;19952;-75
2023/08/09 12:57:57;;;;;;;;;;;16.80;99.90;;;;;;5024733;28;19921;-74
2023/08/09 13:03:50;;;;;;;;;;;16.90;99.90;;;;;;5023143;28;19963;-74
2023/08/09 13:06:17;;;;;;;;;;;16.90;99.90;;;;;;5024672;28;19953;-76
2023/08/09 13:08:44;;;;;;;;;;;16.90;99.90;;;;;;5025275;28;20267;-74
2023/08/09 13:11:11;;;;;;;;;;;17.00;99.90;;;;;;5025541;28;19984;-76
2023/08/09 13:13:39;;;;;;;;;;;17.00;99.90;;;;;;5025459;28;19927;-75
2023/08/09 13:16:07;;;;;;;;;;;17.00;99.90;;;;;;5024592;28;19996;-74
2023/08/09 13:18:33;;;;;;;;;;;17.00;99.90;;;;;;5025294;28;19925;-74
2023/08/09 13:21:00;;;;;;;;;;;17.00;99.90;;;;;;5025061;28;19953;-74
2023/08/09 13:23:27;;;;;;;;;;;17.00;99.90;;;;;;5025349;28;19993;-75
2023/08/09 13:25:54;;;;;;;;;;;17.00;99.90;;;;;;5024000;28;20212;-76
2023/08/09 13:28:21;;;;;;;;;;;17.00;99.90;;;;;;5025165;28;20328;-74
2023/08/09 13:30:49;;;;;;;;;;;17.10;99.90;;;;;;5025353;28;19988;-75
2023/08/09 13:33:15;;;;;;;;;;;17.10;99.90;;;;;;5025020;28;19960;-74
2023/08/09 13:35:44;;;;;;;;;;;17.10;99.90;;;;;;5024368;28;20004;-74
2023/08/09 13:38:25;;;;;;;;;;;17.10;99.90;;;;;;5024708;28;19921;-75
2023/08/09 13:40:51;;;;;;;;;;;17.10;99.90;;;;;;5020875;28;19988;-74
2023/08/09 13:43:18;;;;;;;;;;;17.10;99.90;;;;;;5004997;28;20112;-75
2023/08/09 13:45:44;;;;;;;;;;;17.10;99.90;;;;;;5004636;28;19922;-74
2023/08/09 13:48:12;;;;;;;;;;;17.10;99.90;;;;;;5004785;28;19928;-74
2023/08/09 13:50:39;;;;;;;;;;;17.20;99.90;;;;;;5005342;28;19949;-74
2023/08/09 13:53:06;;;;;;;;;;;17.20;99.90;;;;;;5005136;28;19928;-74
2023/08/09 13:55:33;;;;;;;;;;;17.20;99.90;;;;;;5004989;28;19921;-74
2023/08/09 13:57:59;;;;;;;;;;;17.20;99.90;;;;;;5004220;28;19928;-74
2023/08/09 14:00:27;;;;;;;;;;;17.30;99.90;;;;;;5004814;28;19960;-74
2023/08/09 14:02:53;;;;;;;;;;;17.30;99.90;;;;;;5005016;28;19992;-74
2023/08/09 14:05:36;;;;;;;;;;;17.40;99.90;;;;;;5002278;28;19990;-74
2023/08/09 14:08:03;;;;;;;;;;;17.40;99.90;;;;;;5004579;28;19953;-74
2023/08/09 14:10:29;;;;;;;;;;;17.40;99.90;;;;;;5004911;28;19953;-74
2023/08/09 14:12:56;;;;;;;;;;;17.40;99.90;;;;;;5004901;28;19929;-75
2023/08/09 14:15:23;;;;;;;;;;;17.40;99.90;;;;;;5004342;28;19988;-75
2023/08/09 14:17:50;;;;;;;;;;;17.40;99.90;;;;;;5003940;28;19993;-74
2023/08/09 14:20:17;;;;;;;;;;;17.40;99.90;;;;;;5005728;28;19989;-74
2023/08/09 14:22:47;;;;;;;;;;;17.50;99.90;;;;;;5014652;28;19929;-74
2023/08/09 14:25:14;;;;;;;;;;;17.50;99.90;;;;;;5008389;28;19949;-75
2023/08/09 14:27:41;;;;;;;;;;;17.50;99.90;;;;;;5003794;28;20290;-75
2023/08/09 14:30:09;;;;;;;;;;;17.50;99.90;;;;;;5004454;28;20336;-74
2023/08/09 14:32:36;;;;;;;;;;;17.50;99.90;;;;;;5004628;28;19929;-75
2023/08/09 14:35:09;;;;;;;;;;;17.40;99.90;;;;;;4998895;28;19922;-74
2023/08/09 14:37:35;;;;;;;;;;;17.40;99.90;;;;;;5003259;28;19988;-75
2023/08/09 14:40:06;;;;;;;;;;;17.50;99.90;;;;;;5004463;28;19969;-75